Lake Delton, Wisconsin
Current Conditions -  °F | °C
As of 4:35 AM on Friday 24 Oct 2014 (Local Time) from KDLL Reporting Station
Moderate Fog Moderate Fog  
Wind Chill: 47°   Ceiling: 200
Heat Index: 47°   Visibility: 0.25mi
Dew Point: 46°   Wind: 3mph
Humidity: 96%   Direction: 250°WSW
Pressure: 30.04"   Gusts: NA
Location:  43.6°N, 89.79°W
Report Text: KDLL 240935Z AUTO 25003KT 1/4SM FG OVC002 08/08 A3004 RMK AO2 T00820076
Loading
Personal Weather Stations






























Interactive Weather Map
Tropical Storm Tracking
New forecast layout! Learn more

10-Day Weather Forecast

Advertisements
Track Severe Weather on mobile